Wetterdaten: Woche 19.10.09 - 25.10.09 (KW43)
Datum Zeit Temp. A. Feuchte A. Luftdruck Regen Wind Richtung Taupunkt Windchill Windben
19.10.2009 00:00 4,8 C 84 % 1020,9 hPa 0,0 l/m 2,4 km/h N-NW 2,3 C 4,8 C 8,1 km/h
19.10.2009 01:00 4,8 C 84 % 1020,8 hPa 0,0 l/m 3,1 km/h W 2,2 C 4,8 C 7,2 km/h
19.10.2009 02:00 4,7 C 83 % 1020,9 hPa 0,0 l/m 2,7 km/h N-NW 2,1 C 4,7 C 7,6 km/h
19.10.2009 03:00 4,6 C 85 % 1020,8 hPa 0,0 l/m 1,9 km/h NW 2,2 C 4,6 C 6,4 km/h
19.10.2009 04:00 4,4 C 84 % 1020,7 hPa 0,0 l/m 2,2 km/h NW 1,9 C 4,4 C 7,2 km/h
19.10.2009 05:00 4,3 C 85 % 1020,8 hPa 0,0 l/m 1,8 km/h NW 2,1 C 4,3 C 5,6 km/h
19.10.2009 06:00 4,6 C 84 % 1020,8 hPa 0,0 l/m 2,7 km/h NW 2,1 C 4,6 C 7,6 km/h
19.10.2009 07:00 4,7 C 83 % 1021,1 hPa 0,0 l/m 2,5 km/h NW 2,1 C 4,7 C 6,8 km/h
19.10.2009 08:00 4,8 C 84 % 1021,5 hPa 0,0 l/m 2,7 km/h NW 2,3 C 4,8 C 7,6 km/h
19.10.2009 09:00 5,3 C 82 % 1021,7 hPa 0,0 l/m 3,0 km/h NW 2,5 C 5,3 C 8,9 km/h
19.10.2009 10:00 5,8 C 79 % 1021,9 hPa 0,0 l/m 4,4 km/h N-NW 2,5 C 5,8 C 11,7 km/h
19.10.2009 11:00 6,4 C 74 % 1021,9 hPa 0,0 l/m 5,8 km/h NW 2,1 C 6,4 C 12,1 km/h
19.10.2009 12:00 6,6 C 73 % 1021,5 hPa 0,0 l/m 3,8 km/h W-NW 2,0 C 6,6 C 8,9 km/h
19.10.2009 13:00 6,9 C 70 % 1020,7 hPa 0,0 l/m 4,3 km/h N-NW 1,7 C 6,9 C 9,6 km/h
19.10.2009 14:00 7,3 C 66 % 1020,1 hPa 0,0 l/m 3,9 km/h NW 1,4 C 7,3 C 9,3 km/h
19.10.2009 15:00 7,3 C 66 % 1019,8 hPa 0,0 l/m 3,2 km/h N-NW 1,3 C 7,3 C 9,3 km/h
19.10.2009 16:00 7,4 C 62 % 1019,3 hPa 0,0 l/m 4,1 km/h NW 0,6 C 7,4 C 10,9 km/h
19.10.2009 17:00 7,0 C 67 % 1019,2 hPa 0,0 l/m 3,3 km/h NW 1,2 C 7,0 C 8,4 km/h
19.10.2009 18:00 6,4 C 70 % 1019,0 hPa 0,0 l/m 2,6 km/h NW 1,3 C 6,4 C 6,8 km/h
19.10.2009 19:00 6,0 C 73 % 1019,1 hPa 0,0 l/m 1,8 km/h NW 1,4 C 6,0 C 5,2 km/h
19.10.2009 20:00 5,7 C 72 % 1018,9 hPa 0,0 l/m 1,7 km/h NW 1,0 C 5,7 C 4,8 km/h
19.10.2009 21:00 5,7 C 69 % 1018,6 hPa 0,0 l/m 1,8 km/h NW 0,5 C 5,7 C 4,8 km/h
19.10.2009 22:00 5,6 C 70 % 1018,2 hPa 0,0 l/m 1,9 km/h NW 0,5 C 5,6 C 5,2 km/h
19.10.2009 23:00 5,3 C 69 % 1017,8 hPa 0,0 l/m 1,5 km/h N-NW 0,1 C 5,3 C 4,4 km/h
20.10.2009 00:00 5,2 C 69 % 1017,2 hPa 0,0 l/m 1,9 km/h NW -0,1 C 5,2 C 6,0 km/h
20.10.2009 01:00 5,1 C 70 % 1016,5 hPa 0,0 l/m 1,4 km/h NW 0,1 C 5,1 C 4,4 km/h
20.10.2009 02:00 5,0 C 71 % 1016,1 hPa 0,0 l/m 1,4 km/h NW 0,2 C 5,0 C 4,4 km/h
20.10.2009 03:00 4,8 C 73 % 1015,8 hPa 0,0 l/m 0,9 km/h N 0,3 C 4,8 C 3,6 km/h
20.10.2009 04:00 4,8 C 74 % 1015,4 hPa 0,0 l/m 0,4 km/h N 0,5 C 4,8 C 3,2 km/h
20.10.2009 05:00 4,7 C 76 % 1015,1 hPa 0,0 l/m 0,1 km/h N 0,8 C 4,7 C 1,2 km/h
20.10.2009 06:00 4,4 C 78 % 1014,9 hPa 0,0 l/m 0,0 km/h N 0,9 C 4,4 C 0,8 km/h
20.10.2009 07:00 4,3 C 80 % 1015,1 hPa 0,0 l/m 0,0 km/h N 1,1 C 4,3 C 1,2 km/h
20.10.2009 08:00 4,4 C 81 % 1015,3 hPa 0,0 l/m 0,0 km/h N 1,3 C 4,4 C 1,2 km/h
20.10.2009 09:00 4,8 C 79 % 1015,3 hPa 0,0 l/m 0,2 km/h N 1,5 C 4,8 C 1,6 km/h
20.10.2009 10:00 5,5 C 77 % 1015,4 hPa 0,0 l/m 0,1 km/h N 1,7 C 5,5 C 1,2 km/h
20.10.2009 11:00 6,1 C 74 % 1015,3 hPa 0,0 l/m 0,1 km/h N 1,8 C 6,1 C 2,0 km/h
20.10.2009 12:00 6,3 C 76 % 1015,1 hPa 0,0 l/m 0,1 km/h N 2,4 C 6,3 C 1,6 km/h
20.10.2009 13:00 6,6 C 76 % 1014,8 hPa 0,0 l/m 0,1 km/h N 2,7 C 6,6 C 1,2 km/h
20.10.2009 14:00 7,2 C 72 % 1014,5 hPa 0,0 l/m 0,8 km/h NO 2,5 C 7,2 C 4,0 km/h
20.10.2009 15:00 7,6 C 72 % 1014,2 hPa 0,0 l/m 1,3 km/h NO 2,9 C 7,6 C 3,6 km/h
20.10.2009 16:00 7,6 C 72 % 1014,0 hPa 0,0 l/m 1,0 km/h N 2,9 C 7,6 C 3,6 km/h
20.10.2009 17:00 7,3 C 71 % 1014,0 hPa 0,0 l/m 0,6 km/h N 2,4 C 7,3 C 3,2 km/h
20.10.2009 18:00 6,9 C 73 % 1014,4 hPa 0,0 l/m 0,1 km/h N 2,3 C 6,9 C 1,6 km/h
20.10.2009 19:00 6,3 C 76 % 1014,7 hPa 0,0 l/m 0,1 km/h N 2,4 C 6,3 C 1,2 km/h
20.10.2009 20:00 5,0 C 77 % 1014,8 hPa 0,0 l/m 0,0 km/h N 1,2 C 5,0 C 0,0 km/h
20.10.2009 21:00 3,3 C 80 % 1014,8 hPa 0,0 l/m 0,0 km/h N 0,1 C 3,3 C 0,0 km/h
20.10.2009 22:00 2,2 C 83 % 1014,7 hPa 0,0 l/m 0,0 km/h N -0,5 C 2,2 C 0,8 km/h
20.10.2009 23:00 1,3 C 85 % 1014,6 hPa 0,0 l/m 0,0 km/h N -1,0 C 1,3 C 0,0 km/h
21.10.2009 00:00 0,7 C 86 % 1014,6 hPa 0,0 l/m 0,0 km/h N -1,5 C 0,7 C 0,0 km/h
21.10.2009 01:00 0,7 C 88 % 1014,3 hPa 0,0 l/m 0,0 km/h N -1,2 C 0,7 C 0,0 km/h
21.10.2009 02:00 0,8 C 88 % 1014,3 hPa 0,0 l/m 0,0 km/h N -1,0 C 0,8 C 0,0 km/h
21.10.2009 03:00 0,9 C 89 % 1014,0 hPa 0,0 l/m 0,1 km/h N -0,7 C 0,9 C 0,8 km/h
21.10.2009 04:00 1,1 C 89 % 1013,8 hPa 0,0 l/m 0,0 km/h N -0,5 C 1,1 C 0,0 km/h
21.10.2009 05:00 1,6 C 90 % 1013,9 hPa 0,0 l/m 0,0 km/h N 0,2 C 1,6 C 0,0 km/h
21.10.2009 06:00 2,1 C 90 % 1013,8 hPa 0,0 l/m 0,0 km/h N 0,6 C 2,1 C 0,0 km/h
21.10.2009 07:00 2,5 C 91 % 1013,8 hPa 0,0 l/m 0,1 km/h N 1,2 C 2,5 C 2,4 km/h
21.10.2009 08:00 2,8 C 91 % 1014,0 hPa 0,0 l/m 0,3 km/h N 1,5 C 2,8 C 3,6 km/h
21.10.2009 09:00 3,0 C 91 % 1014,0 hPa 0,0 l/m 0,2 km/h N 1,7 C 3,0 C 2,8 km/h
21.10.2009 10:00 3,2 C 91 % 1014,1 hPa 0,0 l/m 0,1 km/h N 1,9 C 3,2 C 2,0 km/h
21.10.2009 11:00 3,3 C 90 % 1014,2 hPa 0,0 l/m 0,6 km/h N 1,8 C 3,3 C 2,8 km/h
21.10.2009 12:00 3,4 C 90 % 1014,1 hPa 0,0 l/m 0,4 km/h N 1,9 C 3,4 C 2,4 km/h
21.10.2009 13:00 4,3 C 86 % 1013,8 hPa 0,0 l/m 0,5 km/h S 2,2 C 4,3 C 2,8 km/h
21.10.2009 14:00 6,3 C 78 % 1013,1 hPa 0,0 l/m 1,6 km/h S 2,7 C 6,3 C 7,2 km/h
21.10.2009 15:00 7,1 C 77 % 1012,8 hPa 0,0 l/m 1,9 km/h S 3,3 C 7,1 C 2,7 km/h
21.10.2009 16:00 7,6 C 74 % 1012,3 hPa 0,0 l/m 1,1 km/h N 3,3 C 7,6 C 4,0 km/h
21.10.2009 17:00 6,7 C 79 % 1011,7 hPa 0,0 l/m 0,1 km/h N 3,2 C 6,7 C 1,6 km/h
21.10.2009 18:00 5,2 C 84 % 1011,4 hPa 0,0 l/m 0,0 km/h N 2,8 C 5,2 C 0,8 km/h
21.10.2009 19:00 4,2 C 87 % 1011,0 hPa 0,0 l/m 0,0 km/h N 2,2 C 4,2 C 0,4 km/h
21.10.2009 20:00 3,9 C 88 % 1010,6 hPa 0,0 l/m 0,0 km/h N 2,1 C 3,9 C 1,2 km/h
21.10.2009 21:00 3,0 C 88 % 1010,3 hPa 0,0 l/m 0,0 km/h N 1,3 C 3,0 C 0,4 km/h
21.10.2009 22:00 2,1 C 88 % 1009,9 hPa 0,0 l/m 0,0 km/h N 0,3 C 2,1 C 0,0 km/h
21.10.2009 23:00 1,7 C 89 % 1009,6 hPa 0,0 l/m 0,0 km/h N -0,0 C 1,7 C 1,2 km/h
22.10.2009 00:00 1,6 C 89 % 1008,9 hPa 0,0 l/m 0,0 km/h N -0,0 C 1,6 C 0,4 km/h
22.10.2009 01:00 1,6 C 90 % 1008,3 hPa 0,0 l/m 0,1 km/h N 0,1 C 1,6 C 1,2 km/h
22.10.2009 02:00 2,9 C 91 % 1007,6 hPa 0,0 l/m 0,1 km/h N 1,6 C 2,9 C 1,2 km/h
22.10.2009 03:00 3,7 C 91 % 1007,2 hPa 0,0 l/m 0,9 km/h S-SW 2,4 C 3,7 C 6,8 km/h
22.10.2009 04:00 4,0 C 91 % 1006,8 hPa 0,0 l/m 0,6 km/h N 2,7 C 4,0 C 5,2 km/h
22.10.2009 05:00 4,3 C 91 % 1006,7 hPa 0,0 l/m 1,0 km/h SW 3,0 C 4,3 C 6,0 km/h
22.10.2009 06:00 4,6 C 91 % 1006,3 hPa 0,0 l/m 0,6 km/h N 3,2 C 4,6 C 4,4 km/h
22.10.2009 07:00 4,8 C 91 % 1006,0 hPa 0,0 l/m 0,1 km/h N 3,4 C 4,8 C 1,2 km/h
22.10.2009 08:00 4,7 C 92 % 1006,3 hPa 0,0 l/m 0,0 km/h N 3,4 C 4,7 C 0,0 km/h
22.10.2009 09:00 5,4 C 92 % 1006,2 hPa 0,0 l/m 0,0 km/h N 4,2 C 5,4 C 0,0 km/h
22.10.2009 10:00 6,6 C 90 % 1005,8 hPa 0,0 l/m 0,0 km/h N 5,1 C 6,6 C 0,8 km/h
22.10.2009 11:00 7,4 C 88 % 1005,7 hPa 0,0 l/m 0,1 km/h N 5,5 C 7,4 C 1,2 km/h
22.10.2009 12:00 8,4 C 85 % 1005,6 hPa 0,0 l/m 0,4 km/h N 6,0 C 8,4 C 3,2 km/h
22.10.2009 13:00 9,7 C 80 % 1005,1 hPa 0,0 l/m 0,2 km/h N 6,4 C 9,7 C 1,6 km/h
22.10.2009 14:00 10,3 C 78 % 1004,6 hPa 0,0 l/m 0,0 km/h N 6,6 C 10,3 C 2,4 km/h
22.10.2009 15:00 10,3 C 81 % 1004,4 hPa 0,0 l/m 0,0 km/h N 7,1 C 10,3 C 0,0 km/h
22.10.2009 16:00 10,3 C 83 % 1004,3 hPa 0,0 l/m 0,0 km/h N 7,5 C 10,3 C 1,6 km/h
22.10.2009 17:00 10,1 C 85 % 1004,6 hPa 0,0 l/m 0,0 km/h N 7,7 C 10,1 C 0,0 km/h
22.10.2009 18:00 10,0 C 87 % 1004,7 hPa 0,0 l/m 0,0 km/h N 7,9 C 10,0 C 0,4 km/h
22.10.2009 19:00 10,1 C 90 % 1004,6 hPa 0,0 l/m 0,0 km/h N 8,5 C 10,1 C 1,2 km/h
22.10.2009 20:00 10,4 C 90 % 1004,6 hPa 0,0 l/m 0,0 km/h N 8,8 C 10,4 C 0,4 km/h
22.10.2009 21:00 10,9 C 91 % 1004,4 hPa 0,0 l/m 0,1 km/h NO 9,5 C 10,9 C 1,6 km/h
22.10.2009 22:00 11,3 C 91 % 1004,9 hPa 0,0 l/m 2,7 km/h N-NW 9,8 C 11,3 C 6,0 km/h
22.10.2009 23:00 10,8 C 89 % 1005,5 hPa 0,0 l/m 0,7 km/h N 9,1 C 10,8 C 6,0 km/h
23.10.2009 00:00 11,1 C 84 % 1005,7 hPa 0,0 l/m 0,4 km/h N 8,5 C 11,1 C 4,4 km/h
23.10.2009 01:00 11,6 C 80 % 1006,0 hPa 0,0 l/m 0,5 km/h N 8,2 C 11,6 C 4,0 km/h
23.10.2009 02:00 11,4 C 79 % 1006,3 hPa 0,0 l/m 0,1 km/h N 7,9 C 11,4 C 1,6 km/h
23.10.2009 03:00 10,7 C 81 % 1006,7 hPa 0,0 l/m 0,0 km/h N 7,6 C 10,7 C 0,0 km/h
23.10.2009 04:00 10,2 C 83 % 1006,9 hPa 0,0 l/m 0,0 km/h N 7,4 C 10,2 C 0,8 km/h
23.10.2009 05:00 9,3 C 83 % 1007,0 hPa 0,0 l/m 0,0 km/h N 6,6 C 9,3 C 0,0 km/h
23.10.2009 06:00 8,0 C 85 % 1007,8 hPa 0,0 l/m 0,0 km/h N 5,6 C 8,0 C 0,4 km/h
23.10.2009 07:00 8,1 C 88 % 1008,6 hPa 0,0 l/m 0,5 km/h N 6,2 C 8,1 C 3,6 km/h
23.10.2009 08:00 8,5 C 89 % 1009,3 hPa 0,0 l/m 1,5 km/h W-NW 6,8 C 8,5 C 4,0 km/h
23.10.2009 09:00 9,2 C 88 % 1009,6 hPa 0,0 l/m 1,6 km/h N 7,3 C 9,2 C 5,6 km/h
23.10.2009 10:00 10,4 C 85 % 1009,7 hPa 0,3 l/m 7,1 km/h NW 7,9 C 9,2 C 14,5 km/h
23.10.2009 11:00 11,9 C 78 % 1009,8 hPa 0,0 l/m 10,8 km/h NW 8,2 C 9,3 C 22,1 km/h
23.10.2009 12:00 13,2 C 75 % 1009,8 hPa 0,0 l/m 6,2 km/h NW 8,8 C 12,9 C 12,9 km/h
23.10.2009 13:00 14,1 C 72 % 1010,1 hPa 0,0 l/m 5,6 km/h N-NO 9,1 C 14,0 C 13,7 km/h
23.10.2009 14:00 13,7 C 73 % 1010,3 hPa 0,0 l/m 5,4 km/h N-NO 8,9 C 13,7 C 12,5 km/h
23.10.2009 15:00 13,3 C 75 % 1010,5 hPa 0,0 l/m 4,5 km/h N 8,9 C 13,3 C 9,3 km/h
23.10.2009 16:00 12,5 C 76 % 1011,0 hPa 0,0 l/m 4,2 km/h N-NO 8,4 C 12,5 C 9,3 km/h
23.10.2009 17:00 11,5 C 79 % 1012,0 hPa 0,0 l/m 1,1 km/h N-NW 8,0 C 11,5 C 5,6 km/h
23.10.2009 18:00 10,3 C 84 % 1012,3 hPa 0,0 l/m 1,0 km/h N-NW 7,6 C 10,3 C 3,6 km/h
23.10.2009 19:00 9,7 C 85 % 1012,8 hPa 0,0 l/m 1,8 km/h N-NW 7,4 C 9,7 C 4,8 km/h
23.10.2009 20:00 9,8 C 84 % 1012,8 hPa 0,0 l/m 2,3 km/h NW 7,2 C 9,8 C 6,0 km/h
23.10.2009 21:00 10,1 C 84 % 1013,4 hPa 0,0 l/m 1,6 km/h NW 7,5 C 10,1 C 5,2 km/h
23.10.2009 22:00 10,2 C 85 % 1014,0 hPa 0,0 l/m 2,4 km/h N-NW 7,7 C 10,2 C 6,8 km/h
23.10.2009 23:00 10,3 C 84 % 1014,0 hPa 0,0 l/m 3,2 km/h W-NW 7,7 C 10,3 C 8,4 km/h
24.10.2009 00:00 10,1 C 85 % 1014,0 hPa 0,0 l/m 3,8 km/h NW 7,7 C 10,1 C 9,3 km/h
24.10.2009 01:00 10,1 C 84 % 1014,1 hPa 0,0 l/m 5,0 km/h NW 7,5 C 10,1 C 11,3 km/h
24.10.2009 02:00 9,9 C 84 % 1014,2 hPa 0,0 l/m 5,1 km/h NW 7,3 C 9,9 C 10,5 km/h
24.10.2009 03:00 9,9 C 83 % 1014,3 hPa 0,0 l/m 6,5 km/h N-NW 7,2 C 9,6 C 16,9 km/h
24.10.2009 04:00 9,9 C 83 % 1014,5 hPa 0,0 l/m 6,2 km/h NW 7,2 C 9,6 C 14,5 km/h
24.10.2009 05:00 9,8 C 83 % 1015,0 hPa 0,0 l/m 4,5 km/h N-NW 7,1 C 9,8 C 10,5 km/h
24.10.2009 06:00 9,8 C 83 % 1015,3 hPa 0,0 l/m 5,1 km/h NW 7,1 C 9,8 C 11,7 km/h
24.10.2009 07:00 9,8 C 83 % 1015,8 hPa 0,0 l/m 4,9 km/h NW 7,1 C 9,8 C 12,1 km/h
24.10.2009 08:00 9,9 C 83 % 1016,5 hPa 0,0 l/m 4,9 km/h NW 7,2 C 9,9 C 12,5 km/h
24.10.2009 09:00 10,2 C 83 % 1016,9 hPa 0,0 l/m 4,5 km/h NW 7,4 C 10,2 C 12,5 km/h
24.10.2009 10:00 10,8 C 81 % 1017,0 hPa 0,0 l/m 6,7 km/h NW 7,6 C 10,4 C 18,5 km/h
24.10.2009 11:00 11,1 C 79 % 1017,2 hPa 0,0 l/m 6,4 km/h N-NO 7,5 C 11,0 C 18,5 km/h
24.10.2009 12:00 11,2 C 79 % 1017,5 hPa 0,0 l/m 5,6 km/h W 7,7 C 11,2 C 16,5 km/h
24.10.2009 13:00 11,4 C 78 % 1017,4 hPa 0,0 l/m 6,1 km/h NW 7,8 C 11,1 C 14,5 km/h
24.10.2009 14:00 11,7 C 79 % 1017,3 hPa 0,0 l/m 5,8 km/h NW 8,1 C 11,7 C 15,3 km/h
24.10.2009 15:00 11,9 C 78 % 1017,4 hPa 0,0 l/m 5,6 km/h NW 8,2 C 11,9 C 14,1 km/h
24.10.2009 16:00 11,8 C 78 % 1017,5 hPa 0,0 l/m 4,8 km/h NW 8,0 C 11,8 C 9,3 km/h
24.10.2009 17:00 11,6 C 79 % 1017,8 hPa 0,0 l/m 3,8 km/h NW 8,1 C 11,6 C 9,6 km/h
24.10.2009 18:00 11,4 C 79 % 1018,3 hPa 0,0 l/m 4,5 km/h NW 7,9 C 11,4 C 10,9 km/h
24.10.2009 19:00 11,1 C 79 % 1018,5 hPa 0,0 l/m 2,3 km/h NW 7,6 C 11,1 C 7,7 km/h
24.10.2009 20:00 10,7 C 79 % 1018,8 hPa 0,0 l/m 1,9 km/h NW 7,2 C 10,7 C 6,0 km/h
24.10.2009 21:00 10,4 C 80 % 1018,9 hPa 0,0 l/m 2,4 km/h N 7,1 C 10,4 C 5,6 km/h
24.10.2009 22:00 10,0 C 79 % 1019,0 hPa 0,0 l/m 2,8 km/h N-NW 6,6 C 10,0 C 7,2 km/h
24.10.2009 23:00 9,5 C 81 % 1018,8 hPa 0,0 l/m 1,1 km/h N 6,3 C 9,5 C 3,6 km/h
25.10.2009 00:00 8,6 C 83 % 1018,4 hPa 0,0 l/m 0,2 km/h N 5,9 C 8,6 C 0,8 km/h
25.10.2009 01:00 7,9 C 85 % 1018,6 hPa 0,0 l/m 0,6 km/h N 5,5 C 7,9 C 2,0 km/h
25.10.2009 02:00 7,3 C 86 % 1018,6 hPa 0,0 l/m 0,7 km/h N-NO 5,1 C 7,3 C 2,5 km/h
25.10.2009 03:00 5,9 C 86 % 1018,5 hPa 0,0 l/m 0,0 km/h N 3,7 C 5,9 C 0,0 km/h
25.10.2009 04:00 4,8 C 86 % 1018,7 hPa 0,0 l/m 0,0 km/h N 2,7 C 4,8 C 0,0 km/h
25.10.2009 05:00 3,9 C 87 % 1018,9 hPa 0,0 l/m 0,0 km/h N 1,9 C 3,9 C 0,0 km/h
25.10.2009 06:00 3,2 C 88 % 1018,9 hPa 0,0 l/m 0,0 km/h N 1,4 C 3,2 C 0,0 km/h
25.10.2009 07:00 3,5 C 89 % 1019,1 hPa 0,0 l/m 0,0 km/h N 1,9 C 3,5 C 0,0 km/h
25.10.2009 08:00 5,4 C 91 % 1019,2 hPa 0,0 l/m 0,0 km/h N 4,1 C 5,4 C 0,4 km/h
25.10.2009 09:00 7,4 C 92 % 1019,2 hPa 0,0 l/m 0,1 km/h N 6,2 C 7,4 C 1,2 km/h
25.10.2009 10:00 9,4 C 88 % 1019,1 hPa 0,0 l/m 0,3 km/h N 7,5 C 9,4 C 2,8 km/h
25.10.2009 11:00 11,2 C 79 % 1018,7 hPa 0,0 l/m 0,5 km/h N 7,7 C 11,2 C 2,8 km/h
25.10.2009 12:00 12,8 C 74 % 1018,1 hPa 0,0 l/m 0,5 km/h N 8,3 C 12,8 C 2,8 km/h
25.10.2009 13:00 13,8 C 69 % 1017,7 hPa 0,0 l/m 0,4 km/h N 8,1 C 13,8 C 2,8 km/h
25.10.2009 14:00 14,7 C 66 % 1017,6 hPa 0,0 l/m 0,3 km/h N 8,3 C 14,7 C 4,4 km/h
25.10.2009 15:00 14,7 C 68 % 1017,6 hPa 0,0 l/m 0,5 km/h S 8,8 C 14,7 C 4,8 km/h
25.10.2009 16:00 13,1 C 75 % 1017,6 hPa 0,0 l/m 0,0 km/h N 8,7 C 13,1 C 0,8 km/h
25.10.2009 17:00 9,6 C 86 % 1018,1 hPa 0,0 l/m 0,0 km/h N 7,4 C 9,6 C 0,0 km/h
25.10.2009 18:00 8,1 C 90 % 1018,5 hPa 0,0 l/m 0,0 km/h N 6,5 C 8,1 C 0,0 km/h
25.10.2009 19:00 6,7 C 91 % 1018,7 hPa 0,0 l/m 0,0 km/h N 5,3 C 6,7 C 0,0 km/h
25.10.2009 20:00 5,7 C 92 % 1018,6 hPa 0,0 l/m 0,0 km/h N 4,4 C 5,7 C 0,0 km/h
25.10.2009 21:00 5,3 C 92 % 1018,6 hPa 0,0 l/m 0,0 km/h N 4,2 C 5,3 C 0,0 km/h
25.10.2009 22:00 4,9 C 92 % 1018,6 hPa 0,0 l/m 0,0 km/h N 3,8 C 4,9 C 0,0 km/h
25.10.2009 23:00 4,2 C 93 % 1018,6 hPa 0,0 l/m 0,0 km/h N 3,1 C 4,2 C 0,0 km/h
Min-Datum _ 21.10.09 19.10.09 22.10.09 - 20.10.09 - 21.10.09 21.10.09 20.10.09
_ Min-Zeit 00:45 16:00 16:00 - 05:15 - 00:45 00:45 05:30
Minimum _ 0,5 C 61 % 1004,1 hPa - 0,0 km/h - -1,6 C 0,5 C 0,0 km/h
Max-Datum _ 25.10.09 25.10.09 19.10.09 23.10.09 23.10.09 - 22.10.09 25.10.09 23.10.09
_ Max-Zeit 15:15 23:15 10:00 10:45 11:15 - 22:15 15:15 10:45
Maximum _ 15,2 C 93 % 1021,9 hPa 0,3 l/m 13,1 km/h
NW
- 10,0 C 15,2 C 24,1 km/h
N-NW
Durchschnitt _ 7,3 C 82 % 1014,2 hPa #0,3 l/m 1,6 km/h NW 4,3 C 7,2 C 4,7 km/h